createdAt,value
2019-03-13T00:00:36.079Z,2.95
2019-03-13T00:03:05.242Z,1.27
2019-03-13T00:05:34.035Z,4.10
2019-03-13T00:08:02.958Z,3.12
2019-03-13T00:10:32.674Z,1.37
2019-03-13T00:13:01.777Z,3.10
2019-03-13T00:15:31.042Z,4.78
2019-03-13T00:17:59.965Z,4.40
2019-03-13T00:20:29.007Z,3.70
2019-03-13T00:22:57.807Z,2.72
2019-03-13T00:25:26.370Z,2.77
2019-03-13T00:27:55.298Z,3.25
2019-03-13T00:30:24.331Z,2.55
2019-03-13T00:32:52.897Z,2.77
2019-03-13T00:35:21.574Z,4.55
2019-03-13T00:37:50.376Z,4.87
2019-03-13T00:40:19.179Z,3.17
2019-03-13T00:42:48.219Z,2.33
2019-03-13T00:45:16.972Z,3.20
2019-03-13T00:47:46.189Z,4.42
2019-03-13T00:50:26.143Z,2.90
2019-03-13T00:52:55.068Z,3.02
2019-03-13T00:55:23.757Z,3.50
2019-03-13T00:57:52.309Z,3.60
2019-03-13T01:00:39.122Z,2.70
2019-03-13T01:03:09.710Z,3.22
2019-03-13T01:05:56.153Z,3.08
2019-03-13T01:08:24.593Z,3.42
2019-03-13T01:10:53.281Z,2.50
2019-03-13T01:13:21.840Z,2.92
2019-03-13T01:15:50.536Z,3.98
2019-03-13T01:18:19.321Z,6.20
2019-03-13T01:20:49.327Z,2.52
2019-03-13T01:23:18.492Z,4.33
2019-03-13T01:25:47.052Z,2.92
2019-03-13T01:28:16.094Z,3.75
2019-03-13T01:30:46.467Z,4.12
2019-03-13T01:33:18.734Z,3.83
2019-03-13T01:35:49.209Z,3.80
2019-03-13T01:38:17.653Z,7.83
2019-03-13T01:40:46.583Z,4.37
2019-03-13T01:43:15.377Z,5.17
2019-03-13T01:45:44.058Z,3.72
2019-03-13T01:48:12.502Z,4.05
2019-03-13T01:50:41.305Z,3.20
2019-03-13T01:53:10.352Z,6.87
2019-03-13T01:55:38.788Z,7.17
2019-03-13T01:58:07.226Z,8.68
2019-03-13T02:00:36.388Z,5.90
2019-03-13T02:03:05.069Z,5.25
2019-03-13T02:05:33.751Z,7.97
2019-03-13T02:08:03.031Z,4.45
2019-03-13T02:10:31.958Z,5.80
2019-03-13T02:13:00.704Z,4.33
2019-03-13T02:15:29.319Z,6.85
2019-03-13T02:17:58.117Z,6.10
2019-03-13T02:20:26.800Z,5.12
2019-03-13T02:22:55.479Z,5.03
2019-03-13T02:25:24.291Z,7.55
2019-03-13T02:27:52.722Z,7.62
2019-03-13T02:30:23.688Z,4.55
2019-03-13T02:32:52.974Z,6.70
2019-03-13T02:35:21.649Z,3.98
2019-03-13T02:37:50.573Z,6.35
2019-03-13T02:40:19.255Z,6.17
2019-03-13T02:42:47.934Z,6.12
2019-03-13T02:45:16.857Z,9.85
2019-03-13T02:47:45.307Z,5.20
2019-03-13T02:50:17.954Z,6.00
2019-03-13T02:52:47.065Z,6.12
2019-03-13T02:55:16.035Z,9.98
2019-03-13T02:57:44.823Z,5.00
2019-03-13T03:00:22.863Z,5.92
2019-03-13T03:02:52.995Z,5.90
2019-03-13T03:05:21.429Z,3.90
2019-03-13T03:07:50.121Z,4.55
2019-03-13T03:10:18.794Z,8.20
2019-03-13T03:12:47.352Z,7.90
2019-03-13T03:15:18.449Z,4.90
2019-03-13T03:17:47.011Z,6.62
2019-03-13T03:20:20.235Z,9.40
2019-03-13T03:22:48.930Z,6.75
2019-03-13T03:25:18.486Z,5.65
2019-03-13T03:27:47.243Z,6.25
2019-03-13T03:30:19.405Z,4.97
2019-03-13T03:32:48.581Z,5.72
2019-03-13T03:35:17.437Z,4.90
2019-03-13T03:37:46.535Z,5.30
2019-03-13T03:40:22.966Z,4.87
2019-03-13T03:42:50.976Z,8.33
2019-03-13T03:45:19.772Z,5.58
2019-03-13T03:47:48.454Z,9.80
2019-03-13T03:50:18.215Z,12.18
2019-03-13T03:52:47.140Z,5.55
2019-03-13T03:55:16.434Z,11.08
2019-03-13T03:57:45.348Z,8.43
2019-03-13T04:00:18.358Z,9.68
2019-03-13T04:02:47.143Z,13.15
2019-03-13T04:05:15.961Z,9.15
2019-03-13T04:07:44.512Z,7.78
2019-03-13T04:10:15.295Z,7.40
2019-03-13T04:12:44.039Z,6.83
2019-03-13T04:15:14.874Z,10.50
2019-03-13T04:17:43.683Z,5.97
2019-03-13T04:20:14.516Z,8.45
2019-03-13T04:22:42.958Z,7.60
2019-03-13T04:25:23.646Z,6.40
2019-03-13T04:27:52.800Z,7.05
2019-03-13T04:30:21.847Z,8.93
2019-03-13T04:32:50.530Z,8.70
2019-03-13T04:35:19.449Z,8.38
2019-03-13T04:37:48.129Z,9.80
2019-03-13T04:40:17.178Z,7.35
2019-03-13T04:42:45.857Z,5.90
2019-03-13T04:45:14.532Z,8.90
2019-03-13T04:47:43.464Z,9.73
2019-03-13T04:50:17.189Z,9.28
2019-03-13T04:52:45.856Z,7.92
2019-03-13T04:55:15.499Z,8.88
2019-03-13T04:57:44.305Z,8.58
2019-03-13T05:00:20.179Z,9.03
2019-03-13T05:02:48.739Z,8.28
2019-03-13T05:05:35.548Z,11.65
2019-03-13T05:08:04.226Z,11.85
2019-03-13T05:10:33.386Z,12.15
2019-03-13T05:13:01.881Z,8.53
2019-03-13T05:15:30.748Z,6.67
2019-03-13T05:17:59.314Z,10.55
2019-03-13T05:20:27.751Z,6.20
2019-03-13T05:22:56.436Z,7.90
2019-03-13T05:25:24.884Z,7.30
2019-03-13T05:27:53.441Z,9.65
2019-03-13T05:30:22.120Z,10.38
2019-03-13T05:32:50.563Z,10.50
2019-03-13T05:35:19.124Z,10.70
2019-03-13T05:37:48.043Z,10.00
2019-03-13T05:40:16.623Z,13.55
2019-03-13T05:42:45.046Z,9.78
2019-03-13T05:45:13.494Z,10.08
2019-03-13T05:47:41.927Z,11.18
2019-03-13T05:50:13.255Z,10.28
2019-03-13T05:52:41.934Z,9.10
2019-03-13T05:55:10.493Z,9.13
2019-03-13T05:57:38.939Z,11.78
2019-03-13T06:00:09.787Z,8.90
2019-03-13T06:02:38.220Z,12.05
2019-03-13T06:05:07.986Z,8.80
2019-03-13T06:07:36.666Z,8.93
2019-03-13T06:10:07.867Z,8.95
2019-03-13T06:12:36.544Z,13.70
2019-03-13T06:15:07.386Z,9.90
2019-03-13T06:17:35.829Z,8.30
2019-03-13T06:20:10.100Z,6.58
2019-03-13T06:22:37.272Z,7.28
2019-03-13T06:25:07.891Z,8.90
2019-03-13T06:27:36.554Z,7.72
2019-03-13T06:30:18.438Z,7.87
2019-03-13T06:32:47.835Z,8.53
2019-03-13T06:35:16.427Z,10.23
2019-03-13T06:37:44.843Z,6.72
2019-03-13T06:40:15.102Z,11.53
2019-03-13T06:42:43.762Z,7.85
2019-03-13T06:45:16.044Z,9.45
2019-03-13T06:47:44.609Z,5.15
2019-03-13T06:50:18.451Z,10.20
2019-03-13T06:52:47.011Z,7.95
2019-03-13T06:55:15.816Z,5.65
2019-03-13T06:57:44.273Z,7.40
2019-03-13T07:00:30.936Z,10.75
2019-03-13T07:03:13.182Z,9.45
2019-03-13T07:05:46.059Z,8.15
2019-03-13T07:08:34.062Z,13.30
2019-03-13T07:11:20.622Z,11.60
2019-03-13T07:13:56.866Z,8.73
2019-03-13T07:16:36.225Z,10.78
2019-03-13T07:19:22.426Z,7.20
2019-03-13T07:21:52.555Z,9.98
2019-03-13T07:24:25.557Z,9.28
2019-03-13T07:27:01.440Z,9.43
2019-03-13T07:29:31.679Z,7.40
2019-03-13T07:32:04.926Z,9.00
2019-03-13T07:34:47.036Z,9.90
2019-03-13T07:37:23.277Z,9.70
2019-03-13T07:40:02.404Z,5.10
2019-03-13T07:42:50.407Z,9.60
2019-03-13T07:45:20.647Z,12.28
2019-03-13T07:47:53.654Z,12.80
2019-03-13T07:50:26.894Z,12.73
2019-03-13T07:52:57.006Z,9.83
2019-03-13T07:55:36.369Z,12.63
2019-03-13T07:58:06.624Z,12.85
2019-03-13T08:00:39.617Z,12.45
2019-03-13T08:03:18.501Z,12.80
2019-03-13T08:05:54.500Z,13.18
2019-03-13T08:08:36.743Z,12.53
2019-03-13T08:11:23.089Z,9.93
2019-03-13T08:14:09.141Z,10.48
2019-03-13T08:16:45.266Z,9.43
2019-03-13T08:19:18.392Z,13.95
2019-03-13T08:22:04.710Z,13.45
2019-03-13T08:24:37.476Z,14.83
2019-03-13T08:27:23.680Z,13.65
2019-03-13T08:29:54.034Z,14.80
2019-03-13T08:32:30.034Z,10.03
2019-03-13T08:35:02.799Z,8.48
2019-03-13T08:37:42.645Z,10.98
2019-03-13T08:40:21.397Z,11.05
2019-03-13T08:42:54.648Z,5.95
2019-03-13T08:45:30.400Z,11.93
2019-03-13T08:48:12.652Z,12.23
2019-03-13T08:50:51.765Z,15.75
2019-03-13T08:53:36.526Z,10.70
2019-03-13T08:56:06.775Z,13.03
2019-03-13T08:58:42.647Z,9.73
2019-03-13T09:01:28.733Z,10.60
2019-03-13T09:04:07.978Z,7.25
2019-03-13T09:06:54.309Z,11.05
2019-03-13T09:09:27.177Z,10.50
2019-03-13T09:12:03.309Z,8.05
2019-03-13T09:14:33.540Z,13.65
2019-03-13T09:17:03.670Z,11.08
2019-03-13T09:19:33.901Z,14.50
2019-03-13T09:22:12.666Z,8.25
2019-03-13T09:25:11.752Z,11.35
2019-03-13T09:27:34.868Z,9.35
2019-03-13T09:30:20.005Z,12.37
2019-03-13T09:33:06.072Z,14.03
2019-03-13T09:35:52.633Z,9.80
2019-03-13T09:38:22.873Z,11.97
2019-03-13T09:40:53.126Z,11.15
2019-03-13T09:43:26.481Z,17.73
2019-03-13T09:45:56.609Z,13.00
2019-03-13T09:48:42.809Z,14.30
2019-03-13T09:51:21.803Z,11.97
2019-03-13T09:53:52.045Z,11.85
2019-03-13T09:56:25.285Z,11.25
2019-03-13T09:59:13.168Z,11.40
2019-03-13T10:01:59.613Z,9.98
2019-03-13T10:04:32.609Z,15.63
2019-03-13T10:07:17.860Z,13.88
2019-03-13T10:09:48.098Z,10.93
2019-03-13T10:12:21.342Z,8.03
2019-03-13T10:14:51.711Z,13.22
2019-03-13T10:17:36.825Z,14.38
2019-03-13T10:20:09.943Z,12.80
2019-03-13T10:22:43.180Z,21.12
2019-03-13T10:25:19.542Z,9.18
2019-03-13T10:28:01.787Z,11.40
2019-03-13T10:30:49.905Z,16.73
2019-03-13T10:33:20.167Z,10.88
2019-03-13T10:36:06.593Z,11.48
2019-03-13T10:38:48.596Z,7.87
2019-03-13T10:41:19.795Z,12.70
2019-03-13T10:44:07.676Z,12.23
2019-03-13T10:46:56.039Z,14.58
2019-03-13T10:49:32.041Z,12.68
2019-03-13T10:52:02.298Z,11.20
2019-03-13T10:54:50.289Z,11.18
2019-03-13T10:57:23.522Z,10.88
2019-03-13T10:59:59.526Z,12.30
2019-03-13T11:02:35.291Z,9.93
2019-03-13T11:05:23.530Z,11.33
2019-03-13T11:08:00.248Z,12.88
2019-03-13T11:10:36.612Z,15.98
2019-03-13T11:13:06.760Z,10.65
2019-03-13T11:15:42.615Z,9.03
2019-03-13T11:18:17.930Z,11.73
2019-03-13T11:21:02.181Z,10.85
2019-03-13T11:23:38.539Z,9.83
2019-03-13T11:26:10.350Z,10.63
2019-03-13T11:28:40.463Z,9.23
2019-03-13T11:31:26.665Z,14.73
2019-03-13T11:34:12.988Z,9.80
2019-03-13T11:36:59.194Z,5.53
2019-03-13T11:39:45.393Z,11.20
2019-03-13T11:42:21.274Z,9.70
2019-03-13T11:44:57.633Z,8.68
2019-03-13T11:47:27.877Z,8.33
2019-03-13T11:50:00.774Z,13.50
2019-03-13T11:52:40.122Z,6.97
2019-03-13T11:55:11.080Z,10.45
2019-03-13T11:57:41.439Z,10.08
2019-03-13T12:00:17.103Z,16.55
2019-03-13T12:02:47.330Z,15.15
2019-03-13T12:05:20.095Z,17.45
2019-03-13T12:08:04.862Z,11.50
2019-03-13T12:10:46.974Z,15.72
2019-03-13T12:13:17.093Z,14.53
2019-03-13T12:15:53.459Z,15.93
2019-03-13T12:18:23.822Z,11.25
2019-03-13T12:21:10.863Z,10.55
2019-03-13T12:23:55.859Z,11.75
2019-03-13T12:26:29.111Z,13.48
2019-03-13T12:29:08.105Z,16.42
2019-03-13T12:31:44.105Z,16.73
2019-03-13T12:34:17.105Z,13.62
2019-03-13T12:36:56.107Z,13.88
2019-03-13T12:39:28.753Z,13.48
2019-03-13T12:41:59.111Z,10.45
2019-03-13T12:44:36.676Z,9.70
2019-03-13T12:47:22.393Z,10.05
2019-03-13T12:49:52.756Z,14.00
2019-03-13T12:52:26.490Z,8.83
2019-03-13T12:54:56.839Z,13.50
2019-03-13T12:57:36.440Z,15.60
2019-03-13T13:00:18.561Z,10.23
2019-03-13T13:02:54.739Z,15.70
2019-03-13T13:05:24.091Z,11.78
2019-03-13T13:08:06.816Z,14.63
2019-03-13T13:10:40.167Z,19.50
2019-03-13T13:13:25.531Z,15.23
2019-03-13T13:15:58.532Z,12.95
2019-03-13T13:18:31.893Z,21.50
2019-03-13T13:21:00.339Z,13.00
2019-03-13T13:23:28.776Z,11.38
2019-03-13T13:25:57.463Z,17.25
2019-03-13T13:28:26.145Z,13.78
2019-03-13T13:30:55.061Z,14.80
2019-03-13T13:33:23.744Z,20.77
2019-03-13T13:35:52.666Z,12.80
2019-03-13T13:38:21.111Z,15.93
2019-03-13T13:40:49.798Z,15.05
2019-03-13T13:43:18.595Z,12.55
2019-03-13T13:45:49.431Z,13.43
2019-03-13T13:48:18.120Z,15.53
2019-03-13T13:50:46.915Z,15.65
2019-03-13T13:53:15.477Z,17.00
2019-03-13T13:55:44.054Z,15.72
2019-03-13T13:58:12.846Z,15.55
2019-03-13T14:00:41.761Z,10.30
2019-03-13T14:03:10.681Z,10.43
2019-03-13T14:05:40.932Z,17.98
2019-03-13T14:08:09.726Z,16.20
2019-03-13T14:10:38.413Z,12.80
2019-03-13T14:13:07.090Z,12.78
2019-03-13T14:15:35.771Z,9.20
2019-03-13T14:18:04.575Z,11.80
2019-03-13T14:20:33.255Z,12.05
2019-03-13T14:23:01.935Z,10.23
2019-03-13T14:25:30.617Z,16.10
2019-03-13T14:27:59.668Z,10.78
2019-03-13T14:30:28.700Z,16.42
2019-03-13T14:33:01.240Z,7.65
2019-03-13T14:35:29.825Z,10.38
2019-03-13T14:37:58.838Z,21.12
2019-03-13T14:40:27.386Z,18.15
2019-03-13T14:42:56.438Z,15.90
2019-03-13T14:45:25.114Z,16.97
2019-03-13T14:47:54.870Z,9.65
2019-03-13T14:50:23.792Z,9.75
2019-03-13T14:52:52.611Z,10.72
2019-03-13T14:55:21.515Z,5.70
2019-03-13T14:57:50.442Z,15.13
2019-03-13T15:00:21.524Z,14.00
2019-03-13T15:02:50.212Z,12.65
2019-03-13T15:05:19.007Z,23.22
2019-03-13T15:07:48.052Z,15.68
2019-03-13T15:10:20.946Z,16.02
2019-03-13T15:12:49.745Z,15.25
2019-03-13T15:15:21.652Z,13.68
2019-03-13T15:17:53.010Z,18.90
2019-03-13T15:20:25.851Z,10.00
2019-03-13T15:22:54.776Z,11.35
2019-03-13T15:25:23.577Z,12.75
2019-03-13T15:27:52.618Z,10.98
2019-03-13T15:30:28.978Z,11.90
2019-03-13T15:32:58.020Z,10.05
2019-03-13T15:35:26.981Z,12.05
2019-03-13T15:37:55.863Z,9.93
2019-03-13T15:40:24.666Z,7.28
2019-03-13T15:42:53.470Z,5.00
2019-03-13T15:45:26.827Z,5.75
2019-03-13T15:47:55.630Z,4.12
2019-03-13T15:50:24.669Z,6.42
2019-03-13T15:52:53.472Z,6.90
2019-03-13T15:55:22.153Z,5.83
2019-03-13T15:57:51.437Z,12.70
2019-03-13T16:00:21.918Z,6.10
2019-03-13T16:02:50.362Z,7.33
2019-03-13T16:05:18.806Z,4.37
2019-03-13T16:07:47.615Z,4.83
2019-03-13T16:10:20.367Z,2.55
2019-03-13T16:12:49.165Z,7.70
2019-03-13T16:15:23.130Z,4.25
2019-03-13T16:17:51.690Z,6.00
2019-03-13T16:20:20.613Z,3.80
2019-03-13T16:22:59.730Z,1.72
2019-03-13T16:25:28.532Z,3.55
2019-03-13T16:27:57.342Z,5.03
2019-03-13T16:30:31.420Z,3.52
2019-03-13T16:32:59.978Z,3.62
2019-03-13T16:35:28.898Z,5.35
2019-03-13T16:37:57.339Z,2.92
2019-03-13T16:40:26.021Z,5.30
2019-03-13T16:42:54.467Z,3.70
2019-03-13T16:45:23.506Z,4.10
2019-03-13T16:47:52.190Z,2.10
2019-03-13T16:50:27.722Z,8.48
2019-03-13T16:52:56.511Z,4.55
2019-03-13T16:55:25.312Z,4.05
2019-03-13T16:57:53.999Z,6.78
2019-03-13T17:00:27.613Z,6.90
2019-03-13T17:02:56.522Z,5.17
2019-03-13T17:05:25.444Z,6.95
2019-03-13T17:07:54.123Z,8.00
2019-03-13T17:10:24.964Z,6.92
2019-03-13T17:12:53.764Z,4.35
2019-03-13T17:15:24.726Z,6.62
2019-03-13T17:17:54.013Z,7.75
2019-03-13T17:20:31.206Z,7.42
2019-03-13T17:23:00.138Z,10.18
2019-03-13T17:25:29.056Z,7.03
2019-03-13T17:27:57.977Z,10.60
2019-03-13T17:30:31.471Z,7.60
2019-03-13T17:33:00.376Z,9.75
2019-03-13T17:35:29.538Z,9.18
2019-03-13T17:37:57.978Z,5.45
2019-03-13T17:40:28.342Z,11.65
2019-03-13T17:42:57.382Z,15.43
2019-03-13T17:45:26.303Z,11.78
2019-03-13T17:47:54.991Z,6.75
2019-03-13T17:50:24.270Z,11.35
2019-03-13T17:52:52.955Z,6.35
2019-03-13T17:55:22.593Z,13.45
2019-03-13T17:57:51.632Z,16.32
2019-03-13T18:00:32.792Z,10.55
2019-03-13T18:03:01.719Z,10.03
2019-03-13T18:05:30.996Z,11.50
2019-03-13T18:07:59.919Z,13.43
2019-03-13T18:10:28.479Z,11.30
2019-03-13T18:12:57.161Z,12.13
2019-03-13T18:15:27.041Z,11.00
2019-03-13T18:17:55.844Z,19.20
2019-03-13T18:20:24.890Z,12.00
2019-03-13T18:22:53.926Z,10.40
2019-03-13T18:25:22.612Z,13.18
2019-03-13T18:27:51.172Z,8.38
2019-03-13T18:30:25.013Z,16.35
2019-03-13T18:32:53.692Z,13.35
2019-03-13T18:35:22.373Z,13.50
2019-03-13T18:37:51.054Z,13.72
2019-03-13T18:40:21.776Z,6.95
2019-03-13T18:42:50.473Z,9.90
2019-03-13T18:45:33.540Z,14.45
2019-03-13T18:48:02.110Z,10.55
2019-03-13T18:50:30.927Z,15.43
2019-03-13T18:52:59.712Z,9.15
2019-03-13T18:55:29.709Z,13.35
2019-03-13T18:57:58.991Z,12.47
2019-03-13T19:00:31.274Z,14.98
2019-03-13T19:03:00.076Z,11.33
2019-03-13T19:05:35.719Z,15.25
2019-03-13T19:08:04.754Z,13.60
2019-03-13T19:10:33.917Z,11.93
2019-03-13T19:13:03.044Z,14.43
2019-03-13T19:15:32.133Z,13.98
2019-03-13T19:18:01.414Z,20.90
2019-03-13T19:20:30.815Z,13.08
2019-03-13T19:22:59.609Z,15.18
2019-03-13T19:25:28.063Z,14.20
2019-03-13T19:27:57.086Z,17.17
2019-03-13T19:30:33.948Z,15.48
2019-03-13T19:33:02.610Z,20.50
2019-03-13T19:35:31.415Z,18.27
2019-03-13T19:38:05.347Z,13.70
2019-03-13T19:40:33.457Z,26.73
2019-03-13T19:43:05.150Z,18.37
2019-03-13T19:48:14.990Z,26.65
2019-03-13T19:50:44.264Z,19.73
2019-03-13T19:53:13.305Z,5.47
2019-03-13T19:55:42.105Z,4.62
2019-03-13T19:58:10.909Z,8.78
2019-03-13T20:00:39.836Z,7.22
2019-03-13T20:03:16.313Z,6.35
2019-03-13T20:05:46.409Z,7.00
2019-03-13T20:08:15.241Z,6.22
2019-03-13T20:10:43.679Z,7.95
2019-03-13T20:13:12.601Z,4.60
2019-03-13T20:15:41.282Z,3.83
2019-03-13T20:18:10.092Z,8.03
2019-03-13T20:20:39.238Z,14.28
2019-03-13T20:23:12.852Z,7.60
2019-03-13T20:25:41.644Z,5.65
2019-03-13T20:28:10.205Z,7.62
2019-03-13T20:30:39.016Z,8.85
2019-03-13T20:33:07.932Z,11.00
2019-03-13T20:35:37.293Z,8.25
2019-03-13T20:38:06.251Z,6.90
2019-03-13T20:40:35.051Z,9.30
2019-03-13T20:43:03.973Z,8.05
2019-03-13T20:45:32.775Z,7.95
2019-03-13T20:48:01.337Z,6.80
2019-03-13T20:50:37.133Z,7.50
2019-03-13T20:53:00.618Z,10.10
2019-03-13T20:55:29.662Z,7.75
2019-03-13T20:57:58.705Z,6.90
2019-03-13T21:00:28.105Z,4.83
2019-03-13T21:02:57.636Z,4.83
2019-03-13T21:05:26.435Z,6.05
2019-03-13T21:07:55.230Z,5.37
2019-03-13T21:10:24.031Z,4.37
2019-03-13T21:12:52.473Z,5.65
2019-03-13T21:15:25.115Z,4.03
2019-03-13T21:17:53.675Z,2.50
2019-03-13T21:20:22.362Z,8.28
2019-03-13T21:22:50.925Z,2.10
2019-03-13T21:25:20.921Z,8.33
2019-03-13T21:27:49.843Z,6.10
2019-03-13T21:30:24.163Z,3.02
2019-03-13T21:32:52.642Z,3.77
2019-03-13T21:35:21.529Z,5.00
2019-03-13T21:37:50.090Z,3.12
2019-03-13T21:40:20.449Z,2.30
2019-03-13T21:42:49.254Z,4.03
2019-03-13T21:45:22.733Z,3.50
2019-03-13T21:47:48.559Z,3.72
2019-03-13T21:50:19.257Z,4.58
2019-03-13T21:52:47.940Z,6.97
2019-03-13T21:55:17.343Z,6.67
2019-03-13T21:57:46.141Z,5.37
2019-03-13T22:00:24.422Z,5.22
2019-03-13T22:02:53.445Z,5.25
2019-03-13T22:05:26.240Z,3.70
2019-03-13T22:07:53.594Z,8.65
2019-03-13T22:10:22.147Z,3.35
2019-03-13T22:12:51.073Z,4.35
2019-03-13T22:15:20.832Z,5.67
2019-03-13T22:17:49.634Z,12.30
2019-03-13T22:20:19.286Z,6.58
2019-03-13T22:22:48.323Z,6.42
2019-03-13T22:25:17.958Z,8.23
2019-03-13T22:27:46.759Z,10.58
2019-03-13T22:30:22.557Z,6.08
2019-03-13T22:32:51.324Z,5.83
2019-03-13T22:35:19.903Z,7.83
2019-03-13T22:37:50.867Z,6.58
2019-03-13T22:40:19.780Z,8.00
2019-03-13T22:42:48.691Z,13.75
2019-03-13T22:45:18.576Z,9.50
2019-03-13T22:47:47.497Z,11.57
2019-03-13T22:50:23.739Z,18.12
2019-03-13T22:52:52.895Z,14.25
2019-03-13T22:55:22.057Z,9.88
2019-03-13T22:57:50.743Z,12.88
2019-03-13T23:00:52.585Z,11.38
2019-03-13T23:03:23.393Z,12.98
2019-03-13T23:05:52.431Z,11.53
2019-03-13T23:08:21.111Z,19.27
2019-03-13T23:10:49.907Z,13.90
2019-03-13T23:13:18.727Z,16.80
2019-03-13T23:15:47.406Z,23.95
2019-03-13T23:18:18.311Z,24.80
2019-03-13T23:20:46.791Z,21.93
2019-03-13T23:23:15.473Z,29.25
2019-03-13T23:25:44.278Z,12.13
2019-03-13T23:28:12.969Z,19.30
2019-03-13T23:30:41.640Z,24.23
2019-03-13T23:33:10.201Z,22.40
2019-03-13T23:35:39.001Z,19.30
2019-03-13T23:38:08.166Z,19.12
2019-03-13T23:40:37.260Z,19.95
2019-03-13T23:43:06.006Z,17.52
2019-03-13T23:45:34.448Z,22.93
2019-03-13T23:48:03.371Z,15.58
2019-03-13T23:50:32.529Z,22.27
2019-03-13T23:53:01.698Z,24.30
2019-03-13T23:55:30.621Z,23.62
2019-03-13T23:57:59.296Z,26.25
